Time;durP1;ratioP1;P1;durP2;ratioP2;P2;SDS_P1;SDS_P2;PMS_P1;PMS_P2;Temp;Humidity;BMP_temperature;BMP_pressure;BME280_temperature;BME280_humidity;BME280_pressure;Samples;Min_cycle;Max_cycle;Signal;HPM_P1;HPM_P2
2022/09/30 00:01:13;;;;;;;;;;;;;;;8.96;76.16;98050.66;4916536;29;20470;-65
2022/09/30 00:03:39;;;;;;;;;;;;;;;8.92;76.20;98048.41;4916495;29;19922;-65
2022/09/30 00:06:06;;;;;;;;;;;;;;;8.91;76.40;98052.06;4915062;29;19923;-65
2022/09/30 00:08:35;;;;;;;;;;;;;;;8.83;75.92;98057.53;4915143;29;19929;-65
2022/09/30 00:11:03;;;;;;;;;;;;;;;8.76;76.40;98053.25;4916426;29;19930;-65
2022/09/30 00:13:36;;;;;;;;;;;;;;;8.73;76.59;98058.91;4916514;29;19923;-65
2022/09/30 00:16:03;;;;;;;;;;;;;;;8.72;76.88;98055.47;4916056;29;20284;-65
2022/09/30 00:18:31;;;;;;;;;;;;;;;8.69;76.33;98058.47;4915843;29;19923;-65
2022/09/30 00:20:58;;;;;;;;;;;;;;;8.64;76.54;98053.81;4916219;29;20391;-65
2022/09/30 00:23:24;;;;;;;;;;;;;;;8.61;76.58;98058.66;4916121;29;20406;-65
2022/09/30 00:25:56;;;;;;;;;;;;;;;8.59;76.63;98060.69;4916165;29;19977;-65
2022/09/30 00:28:23;;;;;;;;;;;;;;;8.58;77.13;98070.44;4914473;29;19923;-65
2022/09/30 00:30:49;;;;;;;;;;;;;;;8.59;77.26;98071.25;4916103;29;20296;-65
2022/09/30 00:33:15;;;;;;;;;;;;;;;8.60;77.42;98062.31;4915044;29;19978;-65
2022/09/30 00:35:42;;;;;;;;;;;;;;;8.60;77.43;98070.22;4915904;29;19927;-65
2022/09/30 00:38:08;;;;;;;;;;;;;;;8.59;77.36;98065.97;4915566;29;19923;-65
2022/09/30 00:40:36;;;;;;;;;;;;;;;8.59;77.50;98077.31;4916206;29;19971;-65
2022/09/30 00:43:08;;;;;;;;;;;;;;;8.57;77.33;98089.88;4914754;29;19923;-65
2022/09/30 00:45:34;;;;;;;;;;;;;;;8.52;77.30;98083.56;4916011;29;19955;-65
2022/09/30 00:48:11;;;;;;;;;;;;;;;8.48;77.30;98083.13;4914341;29;19971;-64
2022/09/30 00:50:44;;;;;;;;;;;;;;;8.46;77.45;98081.72;4916337;29;20466;-65
2022/09/30 00:53:15;;;;;;;;;;;;;;;8.44;77.23;98087.97;4914967;29;19923;-65
2022/09/30 00:55:56;;;;;;;;;;;;;;;8.43;77.12;98083.72;4915892;29;19927;-65
2022/09/30 00:58:34;;;;;;;;;;;;;;;8.43;77.45;98082.94;4915484;29;19930;-65
2022/09/30 01:01:01;;;;;;;;;;;;;;;8.42;77.59;98089.22;4915945;29;19923;-65
2022/09/30 01:03:33;;;;;;;;;;;;;;;8.42;77.63;98092.66;4915826;29;20362;-65
2022/09/30 01:06:00;;;;;;;;;;;;;;;8.43;77.38;98088.19;4916044;29;19974;-65
2022/09/30 01:08:28;;;;;;;;;;;;;;;8.42;77.55;98092.66;4918311;29;20307;-65
2022/09/30 01:10:55;;;;;;;;;;;;;;;8.43;77.76;98086.38;4919276;29;19923;-65
2022/09/30 01:13:23;;;;;;;;;;;;;;;8.42;77.36;98089.22;4919286;29;20451;-65
2022/09/30 01:16:28;;;;;;;;;;;;;;;8.37;77.34;98086.34;4919168;29;19927;-65
2022/09/30 01:18:55;;;;;;;;;;;;;;;8.32;77.73;98076.34;4861020;29;20317;-65
2022/09/30 01:21:35;;;;;;;;;;;;;;;8.28;77.86;98077.75;4845361;29;20354;-65
2022/09/30 01:24:08;;;;;;;;;;;;;;;8.24;77.92;98078.34;4894134;29;19927;-65
2022/09/30 01:26:34;;;;;;;;;;;;;;;8.18;77.69;98087.84;4918717;29;19923;-64
2022/09/30 01:29:08;;;;;;;;;;;;;;;8.13;77.59;98087.63;4917841;29;19923;-65
2022/09/30 01:31:36;;;;;;;;;;;;;;;8.06;77.67;98103.38;4917767;29;19927;-65
2022/09/30 01:34:05;;;;;;;;;;;;;;;8.01;77.66;98104.97;4918868;29;20383;-65
2022/09/30 01:36:35;;;;;;;;;;;;;;;7.94;77.36;98097.00;4917299;29;19947;-65
2022/09/30 01:39:02;;;;;;;;;;;;;;;7.88;77.99;98100.44;4918837;29;19927;-64
2022/09/30 01:41:46;;;;;;;;;;;;;;;7.83;78.16;98098.34;4917662;29;19923;-65
2022/09/30 01:44:32;;;;;;;;;;;;;;;7.81;78.46;98089.84;4917584;29;19992;-65
2022/09/30 01:47:07;;;;;;;;;;;;;;;7.77;78.38;98093.88;4917229;29;19965;-65
2022/09/30 01:49:40;;;;;;;;;;;;;;;7.74;78.73;98088.97;4917151;29;19926;-66
2022/09/30 01:52:14;;;;;;;;;;;;;;;7.72;78.55;98090.19;4918537;29;19927;-65
2022/09/30 01:54:55;;;;;;;;;;;;;;;7.69;78.70;98096.63;4917689;29;20521;-66
2022/09/30 01:57:27;;;;;;;;;;;;;;;7.65;78.79;98096.22;4916674;29;20344;-65
2022/09/30 01:59:57;;;;;;;;;;;;;;;7.61;78.63;98089.69;4917417;29;19923;-65
2022/09/30 02:02:26;;;;;;;;;;;;;;;7.58;78.40;98097.16;4918722;29;20280;-65
2022/09/30 02:05:01;;;;;;;;;;;;;;;7.56;78.61;98101.81;4917223;29;19927;-65
2022/09/30 02:07:31;;;;;;;;;;;;;;;7.56;78.63;98099.19;4917742;29;20315;-66
2022/09/30 02:10:18;;;;;;;;;;;;;;;7.54;78.67;98109.88;4917207;29;20295;-65
2022/09/30 02:12:56;;;;;;;;;;;;;;;7.53;78.63;98103.00;4888826;29;20280;-65
2022/09/30 02:15:26;;;;;;;;;;;;;;;7.53;78.67;98110.06;4916913;29;20391;-65
2022/09/30 02:17:59;;;;;;;;;;;;;;;7.54;78.73;98109.88;4915712;29;20348;-65
2022/09/30 02:20:26;;;;;;;;;;;;;;;7.55;78.37;98111.50;4916506;29;19927;-66
2022/09/30 02:23:00;;;;;;;;;;;;;;;7.58;78.11;98115.56;4916785;29;19990;-65
2022/09/30 02:25:37;;;;;;;;;;;;;;;7.58;77.98;98116.38;4917118;29;20344;-65
2022/09/30 02:28:07;;;;;;;;;;;;;;;7.60;78.35;98121.47;4916337;29;20352;-66
2022/09/30 02:30:35;;;;;;;;;;;;;;;7.61;78.20;98123.91;4900933;29;19927;-66
2022/09/30 02:33:04;;;;;;;;;;;;;;;7.62;78.09;98122.06;4916713;29;19923;-66
2022/09/30 02:35:33;;;;;;;;;;;;;;;7.64;78.25;98125.34;4918009;29;19977;-66
2022/09/30 02:38:29;;;;;;;;;;;;;;;7.67;78.40;98136.31;4915852;29;19990;-66
2022/09/30 02:40:57;;;;;;;;;;;;;;;7.73;78.03;98145.25;4908430;29;20343;-64
2022/09/30 02:43:24;;;;;;;;;;;;;;;7.75;78.22;98137.97;4916789;29;20318;-64
2022/09/30 02:46:02;;;;;;;;;;;;;;;7.75;77.82;98137.16;4916421;29;19923;-65
2022/09/30 02:48:36;;;;;;;;;;;;;;;7.72;77.73;98133.09;4915961;29;19923;-65
2022/09/30 02:51:27;;;;;;;;;;;;;;;7.74;77.86;98138.97;4917625;29;19930;-65
2022/09/30 02:54:13;;;;;;;;;;;;;;;7.77;77.94;98127.25;4916518;29;19930;-64
2022/09/30 02:56:52;;;;;;;;;;;;;;;7.80;77.77;98130.31;4915751;29;19923;-64
2022/09/30 02:59:19;;;;;;;;;;;;;;;7.83;77.95;98129.91;4916519;29;19927;-64
2022/09/30 03:01:45;;;;;;;;;;;;;;;7.86;77.69;98141.91;4917565;29;20264;-64
2022/09/30 03:04:13;;;;;;;;;;;;;;;7.87;77.90;98141.69;4917347;29;20286;-65
2022/09/30 03:06:40;;;;;;;;;;;;;;;7.88;77.90;98143.34;4915487;29;19930;-65
2022/09/30 03:09:07;;;;;;;;;;;;;;;7.90;78.08;98141.31;4916591;29;19982;-65
2022/09/30 03:11:36;;;;;;;;;;;;;;;7.92;78.00;98143.78;4916088;29;20010;-65
2022/09/30 03:14:02;;;;;;;;;;;;;;;7.93;77.99;98137.50;4915860;29;19923;-65
2022/09/30 03:16:38;;;;;;;;;;;;;;;7.95;78.14;98146.81;4916987;29;19929;-65
2022/09/30 03:19:04;;;;;;;;;;;;;;;7.94;78.04;98139.94;4917690;29;19945;-64
2022/09/30 03:21:49;;;;;;;;;;;;;;;7.93;77.90;98142.75;4917734;29;19927;-65
2022/09/30 03:24:34;;;;;;;;;;;;;;;7.90;77.97;98141.31;4917800;29;19926;-67
2022/09/30 03:27:15;;;;;;;;;;;;;;;7.93;78.09;98140.13;4918335;29;19930;-65
2022/09/30 03:29:46;;;;;;;;;;;;;;;7.95;78.22;98146.81;4920119;29;19923;-65
2022/09/30 03:32:24;;;;;;;;;;;;;;;7.95;77.73;98153.91;4921818;29;19923;-65
2022/09/30 03:34:50;;;;;;;;;;;;;;;7.94;78.07;98153.09;4920341;29;19923;-65
2022/09/30 03:37:17;;;;;;;;;;;;;;;7.97;78.12;98156.34;4919259;29;19935;-65
2022/09/30 03:39:43;;;;;;;;;;;;;;;7.98;77.95;98150.88;4921552;29;20360;-66
2022/09/30 03:42:15;;;;;;;;;;;;;;;7.97;78.32;98151.09;4921244;29;20390;-66
2022/09/30 03:44:56;;;;;;;;;;;;;;;7.93;78.16;98156.72;4922513;29;19930;-66
2022/09/30 03:47:24;;;;;;;;;;;;;;;7.91;78.19;98164.00;4921369;29;19923;-66
2022/09/30 03:49:53;;;;;;;;;;;;;;;7.86;78.26;98163.75;4922803;29;19923;-65
2022/09/30 03:52:19;;;;;;;;;;;;;;;7.84;78.28;98160.50;4922760;29;19933;-66
2022/09/30 03:54:48;;;;;;;;;;;;;;;7.81;78.23;98163.53;4921750;29;19927;-64
2022/09/30 03:57:14;;;;;;;;;;;;;;;7.81;78.04;98165.34;4921300;29;19966;-64
2022/09/30 03:59:40;;;;;;;;;;;;;;;7.80;78.38;98166.34;4921636;29;19922;-64
2022/09/30 04:02:11;;;;;;;;;;;;;;;7.79;78.44;98175.22;5396527;23;19978;-68
2022/09/30 04:04:40;;;;;;;;;;;;;;;7.77;78.41;98172.78;4947203;29;19961;-68
2022/09/30 04:07:07;;;;;;;;;;;;;;;7.77;78.40;98177.25;4939065;29;19926;-67
2022/09/30 04:09:34;;;;;;;;;;;;;;;7.78;78.57;98176.25;4935805;29;20382;-68
2022/09/30 04:12:00;;;;;;;;;;;;;;;7.78;78.42;98178.88;4934693;29;19983;-68
2022/09/30 04:14:27;;;;;;;;;;;;;;;7.75;78.52;98179.25;4934784;29;20442;-67
2022/09/30 04:16:53;;;;;;;;;;;;;;;7.75;78.47;98179.25;4935834;29;19930;-67
2022/09/30 04:19:19;;;;;;;;;;;;;;;7.77;78.59;98185.94;4934486;29;19923;-67
2022/09/30 04:21:46;;;;;;;;;;;;;;;7.77;78.24;98191.22;4934431;29;20306;-67
2022/09/30 04:24:13;;;;;;;;;;;;;;;7.74;78.14;98194.22;4936130;29;19922;-66
2022/09/30 04:26:39;;;;;;;;;;;;;;;7.74;78.11;98196.84;4934913;29;19993;-66
2022/09/30 04:29:06;;;;;;;;;;;;;;;7.70;77.78;98183.25;4934439;29;20379;-67
2022/09/30 04:31:32;;;;;;;;;;;;;;;7.69;77.97;98191.34;4934091;29;19922;-68
2022/09/30 04:33:59;;;;;;;;;;;;;;;7.67;78.03;98191.53;4935244;29;19927;-69
2022/09/30 04:36:25;;;;;;;;;;;;;;;7.69;78.39;98191.34;4933351;29;20407;-69
2022/09/30 04:38:52;;;;;;;;;;;;;;;7.70;78.63;98188.50;4933962;29;20021;-68
2022/09/30 04:41:19;;;;;;;;;;;;;;;7.69;78.43;98193.97;4935019;29;19929;-69
2022/09/30 04:43:46;;;;;;;;;;;;;;;7.68;78.40;98195.81;4937542;29;19970;-67
2022/09/30 04:46:14;;;;;;;;;;;;;;;7.61;77.88;98189.66;4937213;29;19923;-67
2022/09/30 04:48:44;;;;;;;;;;;;;;;7.54;77.79;98198.47;4937664;29;19926;-67
2022/09/30 04:51:15;;;;;;;;;;;;;;;7.50;78.48;98208.56;4937498;29;20371;-66
2022/09/30 04:53:41;;;;;;;;;;;;;;;7.48;78.54;98207.13;4937669;29;19922;-67
2022/09/30 04:56:08;;;;;;;;;;;;;;;7.44;78.68;98204.06;4938190;29;19923;-67
2022/09/30 04:58:35;;;;;;;;;;;;;;;7.43;78.62;98212.97;4938549;29;19923;-67
2022/09/30 05:01:04;;;;;;;;;;;;;;;7.38;78.51;98213.50;4938583;29;19926;-67
2022/09/30 05:03:31;;;;;;;;;;;;;;;7.34;78.48;98225.38;4937097;29;19926;-67
2022/09/30 05:05:57;;;;;;;;;;;;;;;7.30;78.63;98229.38;4937092;29;19923;-67
2022/09/30 05:08:24;;;;;;;;;;;;;;;7.27;78.91;98229.78;4920941;29;19926;-67
2022/09/30 05:10:56;;;;;;;;;;;;;;;7.23;78.67;98233.78;4937160;29;19993;-67
2022/09/30 05:13:23;;;;;;;;;;;;;;;7.20;78.83;98224.44;4938339;29;19929;-67
2022/09/30 05:15:50;;;;;;;;;;;;;;;7.17;78.80;98229.25;4938149;29;19929;-67
2022/09/30 05:18:19;;;;;;;;;;;;;;;7.13;78.97;98239.31;4937632;29;20037;-66
2022/09/30 05:20:49;;;;;;;;;;;;;;;7.16;79.42;98246.03;4938191;29;20395;-66
2022/09/30 05:23:17;;;;;;;;;;;;;;;7.21;79.57;98251.53;4938205;29;19923;-66
2022/09/30 05:25:44;;;;;;;;;;;;;;;7.21;79.42;98256.78;4937028;29;19982;-66
2022/09/30 05:28:11;;;;;;;;;;;;;;;7.23;79.73;98254.81;4937738;29;19930;-66
2022/09/30 05:30:37;;;;;;;;;;;;;;;7.27;79.85;98255.25;4936782;29;19974;-66
2022/09/30 05:33:04;;;;;;;;;;;;;;;7.30;80.11;98266.19;4936607;29;19926;-66
2022/09/30 05:35:31;;;;;;;;;;;;;;;7.31;79.92;98270.47;4936975;29;19978;-66
2022/09/30 05:37:59;;;;;;;;;;;;;;;7.33;79.89;98275.53;4937388;29;19923;-66
2022/09/30 05:40:26;;;;;;;;;;;;;;;7.35;80.16;98278.81;4936642;29;20494;-66
2022/09/30 05:42:55;;;;;;;;;;;;;;;7.36;79.74;98285.69;4937925;29;19924;-66
2022/09/30 05:45:21;;;;;;;;;;;;;;;7.34;79.62;98283.22;4937616;29;19926;-66
2022/09/30 05:47:51;;;;;;;;;;;;;;;7.34;79.78;98283.22;4920039;29;19923;-66
2022/09/30 05:50:18;;;;;;;;;;;;;;;7.35;79.61;98281.44;4937743;29;19932;-66
2022/09/30 05:52:44;;;;;;;;;;;;;;;7.38;79.66;98292.38;4935911;29;19958;-66
2022/09/30 05:55:11;;;;;;;;;;;;;;;7.41;79.77;98292.03;4936416;29;19950;-66
2022/09/30 05:57:38;;;;;;;;;;;;;;;7.42;79.54;98298.91;4937013;29;19923;-66
2022/09/30 06:00:05;;;;;;;;;;;;;;;7.41;79.66;98304.34;4936229;29;19923;-66
2022/09/30 06:02:37;;;;;;;;;;;;;;;7.40;79.50;98298.28;4937205;29;19922;-66
2022/09/30 06:05:05;;;;;;;;;;;;;;;7.40;79.54;98306.19;4937344;29;20010;-68
2022/09/30 06:07:32;;;;;;;;;;;;;;;7.41;79.58;98307.81;4935498;29;19922;-66
2022/09/30 06:09:59;;;;;;;;;;;;;;;7.44;79.34;98307.44;4937136;29;19923;-66
2022/09/30 06:12:27;;;;;;;;;;;;;;;7.46;79.42;98309.88;4937416;29;20355;-66
2022/09/30 06:14:54;;;;;;;;;;;;;;;7.45;79.06;98313.50;4937033;29;20272;-67
2022/09/30 06:17:21;;;;;;;;;;;;;;;7.45;78.92;98316.94;4935263;29;19923;-67
2022/09/30 06:19:48;;;;;;;;;;;;;;;7.45;78.90;98314.31;4937023;29;19922;-67
2022/09/30 06:22:15;;;;;;;;;;;;;;;7.51;79.09;98323.31;4935721;29;20350;-67
2022/09/30 06:24:41;;;;;;;;;;;;;;;7.53;78.79;98318.66;4935728;29;19930;-67
2022/09/30 06:27:08;;;;;;;;;;;;;;;7.53;78.57;98325.75;4935500;29;20340;-67
2022/09/30 06:29:34;;;;;;;;;;;;;;;7.56;78.53;98330.63;4935786;29;19945;-66
2022/09/30 06:32:01;;;;;;;;;;;;;;;7.55;78.24;98332.47;4936936;29;20418;-66
2022/09/30 06:34:28;;;;;;;;;;;;;;;7.54;78.33;98333.44;4935686;29;20327;-67
2022/09/30 06:36:54;;;;;;;;;;;;;;;7.60;78.62;98321.38;4935134;29;20306;-66
2022/09/30 06:39:21;;;;;;;;;;;;;;;7.60;78.43;98324.00;4935634;29;19927;-66
2022/09/30 06:41:48;;;;;;;;;;;;;;;7.62;78.30;98333.31;4937061;29;20311;-66
2022/09/30 06:44:23;;;;;;;;;;;;;;;7.68;78.49;98331.78;4936937;29;19977;-67
2022/09/30 06:46:49;;;;;;;;;;;;;;;7.77;78.67;98340.38;4935256;29;20283;-66
2022/09/30 06:49:20;;;;;;;;;;;;;;;7.82;78.22;98348.53;4935867;29;20449;-67
2022/09/30 06:51:46;;;;;;;;;;;;;;;7.87;78.24;98346.16;4936509;29;19923;-66
2022/09/30 06:54:12;;;;;;;;;;;;;;;7.93;78.00;98345.41;4936486;29;19923;-67
2022/09/30 06:56:39;;;;;;;;;;;;;;;8.02;78.34;98349.56;4934721;29;20446;-69
2022/09/30 06:59:05;;;;;;;;;;;;;;;8.07;78.18;98347.16;4935170;29;19973;-67
2022/09/30 07:01:32;;;;;;;;;;;;;;;8.11;77.74;98348.41;4936104;29;19922;-67
2022/09/30 07:03:59;;;;;;;;;;;;;;;8.17;77.66;98350.31;4936786;29;19923;-68
2022/09/30 07:06:26;;;;;;;;;;;;;;;8.22;77.61;98348.94;4934153;29;20403;-68
2022/09/30 07:08:53;;;;;;;;;;;;;;;8.29;77.42;98352.47;4934813;29;20449;-67
2022/09/30 07:11:19;;;;;;;;;;;;;;;8.31;77.06;98363.59;4936235;29;19922;-67
2022/09/30 07:13:46;;;;;;;;;;;;;;;8.33;76.95;98370.31;4934989;29;20327;-68
2022/09/30 07:16:13;;;;;;;;;;;;;;;8.36;76.97;98369.13;4934257;29;20442;-68
2022/09/30 07:18:43;;;;;;;;;;;;;;;8.43;77.33;98376.09;4935003;29;19950;-68
2022/09/30 07:21:12;;;;;;;;;;;;;;;8.50;76.85;98384.06;4934619;29;19923;-68
2022/09/30 07:23:44;;;;;;;;;;;;;;;8.46;76.27;98385.47;4938098;29;20304;-69
2022/09/30 07:26:10;;;;;;;;;;;;;;;8.44;76.11;98387.44;4934354;29;20383;-70
2022/09/30 07:28:38;;;;;;;;;;;;;;;8.44;76.54;98392.72;4935767;29;19923;-68
2022/09/30 07:31:11;;;;;;;;;;;;;;;8.54;76.47;98392.41;4934627;29;19922;-67
2022/09/30 07:33:57;;;;;;;;;;;;;;;8.57;75.36;98394.66;4935587;29;19962;-67
2022/09/30 07:36:29;;;;;;;;;;;;;;;8.52;74.98;98394.41;4935390;29;19923;-67
2022/09/30 07:39:04;;;;;;;;;;;;;;;8.56;75.78;98393.84;4935760;29;20347;-67
2022/09/30 07:41:34;;;;;;;;;;;;;;;8.60;75.70;98394.28;4935688;29;20014;-67
2022/09/30 07:44:02;;;;;;;;;;;;;;;8.66;75.97;98385.63;4934694;29;19926;-70
2022/09/30 07:46:29;;;;;;;;;;;;;;;8.76;75.58;98385.28;4933857;29;20645;-67
2022/09/30 07:48:59;;;;;;;;;;;;;;;8.80;75.30;98397.09;4935452;29;20244;-68
2022/09/30 07:51:30;;;;;;;;;;;;;;;8.87;75.25;98390.06;4934249;29;19923;-68
2022/09/30 07:54:01;;;;;;;;;;;;;;;8.95;75.52;98402.28;4935574;29;19962;-67
2022/09/30 07:56:28;;;;;;;;;;;;;;;9.05;75.37;98408.00;4933943;29;20289;-69
2022/09/30 07:59:14;;;;;;;;;;;;;;;9.13;75.17;98405.22;4934307;29;20334;-67
2022/09/30 08:01:41;;;;;;;;;;;;;;;9.18;74.74;98418.66;4934227;29;19926;-67
2022/09/30 08:04:09;;;;;;;;;;;;;;;9.24;74.49;98422.34;4935805;29;20005;-68
2022/09/30 08:06:36;;;;;;;;;;;;;;;9.27;74.72;98432.53;4934009;29;19951;-68
2022/09/30 08:09:03;;;;;;;;;;;;;;;9.32;74.17;98423.00;4934364;29;19923;-68
2022/09/30 08:11:32;;;;;;;;;;;;;;;9.40;74.08;98417.59;4935484;29;19957;-68
2022/09/30 08:13:58;;;;;;;;;;;;;;;9.51;74.42;98420.66;4934502;29;19922;-68
2022/09/30 08:16:25;;;;;;;;;;;;;;;9.64;74.14;98428.69;4935672;29;19923;-67
2022/09/30 08:18:56;;;;;;;;;;;;;;;9.74;73.59;98428.31;4939792;29;19958;-68
2022/09/30 08:21:22;;;;;;;;;;;;;;;9.81;73.74;98426.50;4939442;29;20001;-68
2022/09/30 08:23:49;;;;;;;;;;;;;;;9.77;72.37;98430.56;4938289;29;19923;-68
2022/09/30 08:26:15;;;;;;;;;;;;;;;9.61;72.04;98426.41;4947146;29;19922;-68
2022/09/30 08:28:45;;;;;;;;;;;;;;;9.58;72.72;98421.53;4953103;28;19981;-68
2022/09/30 08:31:46;;;;;;;;;;;;;;;9.71;72.98;98431.31;4888113;29;19930;-65
2022/09/30 08:34:13;;;;;;;;;;;;;;;9.87;73.28;98425.72;4889073;29;19924;-65
2022/09/30 08:36:39;;;;;;;;;;;;;;;10.04;73.22;98426.19;4888261;29;19930;-68
2022/09/30 08:39:06;;;;;;;;;;;;;;;10.20;72.84;98436.38;4889846;29;20406;-65
2022/09/30 08:41:38;;;;;;;;;;;;;;;10.33;72.81;98431.19;4887499;29;20407;-68
2022/09/30 08:44:23;;;;;;;;;;;;;;;10.46;72.74;98440.16;4917003;23;19953;-64
2022/09/30 08:47:09;;;;;;;;;;;;;;;10.59;72.08;98426.97;4918456;29;19979;-67
2022/09/30 08:49:52;;;;;;;;;;;;;;;10.72;71.46;98439.38;4918798;29;20021;-66
2022/09/30 08:52:25;;;;;;;;;;;;;;;10.77;71.50;98437.75;4919913;29;19923;-67
2022/09/30 08:55:04;;;;;;;;;;;;;;;10.81;71.01;98443.44;4918897;29;19931;-67
2022/09/30 08:57:39;;;;;;;;;;;;;;;10.88;70.95;98438.97;4919369;29;19923;-65
2022/09/30 09:00:13;;;;;;;;;;;;;;;11.14;71.04;98438.13;4918494;29;19923;-64
2022/09/30 09:02:59;;;;;;;;;;;;;;;11.33;70.75;98437.31;4919909;29;20335;-65
2022/09/30 09:05:47;;;;;;;;;;;;;;;11.51;70.48;98441.13;4919917;29;19923;-65
2022/09/30 09:08:24;;;;;;;;;;;;;;;11.55;70.22;98437.06;4919187;29;19923;-65
2022/09/30 09:10:56;;;;;;;;;;;;;;;11.63;70.45;98440.31;4919954;29;20427;-65
2022/09/30 09:13:23;;;;;;;;;;;;;;;11.64;70.07;98441.13;4920030;29;19930;-65
2022/09/30 09:15:59;;;;;;;;;;;;;;;11.62;69.67;98445.81;4919627;29;19978;-65
2022/09/30 09:18:35;;;;;;;;;;;;;;;11.57;70.03;98438.50;4917563;29;19930;-65
2022/09/30 09:21:08;;;;;;;;;;;;;;;11.55;69.91;98451.13;4919484;29;20446;-65
2022/09/30 09:23:35;;;;;;;;;;;;;;;11.51;69.64;98451.72;4918031;29;20342;-65
2022/09/30 09:26:02;;;;;;;;;;;;;;;11.49;70.13;98451.13;4918224;29;20434;-66
2022/09/30 09:28:39;;;;;;;;;;;;;;;11.51;69.96;98459.66;4918859;29;19923;-65
2022/09/30 09:31:10;;;;;;;;;;;;;;;11.55;70.09;98453.78;4918616;29;19923;-65
2022/09/30 09:33:40;;;;;;;;;;;;;;;11.61;69.89;98454.78;4918417;29;19923;-65
2022/09/30 09:36:07;;;;;;;;;;;;;;;11.66;69.95;98452.31;4918628;29;19927;-65
2022/09/30 09:38:56;;;;;;;;;;;;;;;11.71;69.89;98455.13;4919085;29;20430;-65
2022/09/30 09:41:29;;;;;;;;;;;;;;;11.74;69.81;98452.09;4917795;29;19933;-65
2022/09/30 09:44:14;;;;;;;;;;;;;;;11.81;70.13;98442.28;4917700;29;19946;-65
2022/09/30 09:46:41;;;;;;;;;;;;;;;11.92;69.58;98450.63;4917486;29;19923;-64
2022/09/30 09:49:22;;;;;;;;;;;;;;;11.99;69.38;98446.13;4917699;29;20034;-64
2022/09/30 09:51:57;;;;;;;;;;;;;;;12.05;69.57;98448.75;4917646;29;19922;-64
2022/09/30 09:54:29;;;;;;;;;;;;;;;12.14;69.16;98454.63;4917789;29;19923;-65
2022/09/30 09:57:09;;;;;;;;;;;;;;;12.21;69.20;98454.59;4901908;29;20371;-64
2022/09/30 09:59:54;;;;;;;;;;;;;;;12.30;68.77;98456.78;4902050;29;20002;-64
2022/09/30 10:02:22;;;;;;;;;;;;;;;12.40;68.67;98451.00;4917661;29;20022;-64
2022/09/30 10:04:58;;;;;;;;;;;;;;;12.49;68.87;98449.75;4917305;29;19923;-64
2022/09/30 10:07:27;;;;;;;;;;;;;;;12.54;68.58;98434.00;4917003;29;20047;-64
2022/09/30 10:10:12;;;;;;;;;;;;;;;12.62;68.70;98446.22;4918488;29;19930;-65
2022/09/30 10:12:40;;;;;;;;;;;;;;;12.77;69.03;98443.22;4918465;29;19923;-65
2022/09/30 10:15:20;;;;;;;;;;;;;;;12.85;68.08;98437.66;4917172;29;20326;-66
2022/09/30 10:17:52;;;;;;;;;;;;;;;12.95;68.13;98424.75;4916989;29;19930;-65
2022/09/30 10:20:25;;;;;;;;;;;;;;;13.06;68.40;98423.19;4920017;29;19923;-65
2022/09/30 10:22:59;;;;;;;;;;;;;;;13.23;68.52;98428.81;4917176;29;19922;-65
2022/09/30 10:25:26;;;;;;;;;;;;;;;13.39;68.45;98422.94;4901849;29;19927;-65
2022/09/30 10:27:57;;;;;;;;;;;;;;;13.50;67.54;98424.84;4903645;29;19923;-65
2022/09/30 10:30:30;;;;;;;;;;;;;;;13.57;67.02;98422.13;4919032;29;19978;-65
2022/09/30 10:32:57;;;;;;;;;;;;;;;13.64;66.85;98425.53;4903267;29;19930;-65
2022/09/30 10:35:25;;;;;;;;;;;;;;;13.70;66.36;98431.78;4920247;29;19946;-66
2022/09/30 10:37:52;;;;;;;;;;;;;;;13.80;66.48;98426.78;4902653;29;20331;-64
2022/09/30 10:40:21;;;;;;;;;;;;;;;13.88;65.99;98431.81;4917647;29;20269;-64
2022/09/30 10:42:47;;;;;;;;;;;;;;;13.92;65.04;98432.16;4918261;29;19923;-64
2022/09/30 10:45:22;;;;;;;;;;;;;;;13.96;64.70;98420.88;4918030;29;19930;-63
2022/09/30 10:47:51;;;;;;;;;;;;;;;14.08;64.61;98423.56;4917438;29;19923;-64
2022/09/30 10:50:20;;;;;;;;;;;;;;;14.19;64.51;98408.72;4917838;29;19923;-64
2022/09/30 10:52:53;;;;;;;;;;;;;;;14.28;63.73;98412.66;4918524;29;19927;-63
2022/09/30 10:55:19;;;;;;;;;;;;;;;14.36;63.68;98421.13;4916806;29;19935;-65
2022/09/30 10:57:47;;;;;;;;;;;;;;;14.47;63.05;98413.44;4917640;29;19970;-65
2022/09/30 11:00:18;;;;;;;;;;;;;;;14.55;62.79;98421.91;4916887;29;19969;-65
2022/09/30 11:02:50;;;;;;;;;;;;;;;14.64;62.82;98421.59;4917422;29;20343;-65
2022/09/30 11:05:23;;;;;;;;;;;;;;;14.74;62.41;98414.69;4916749;29;19962;-65
2022/09/30 11:08:02;;;;;;;;;;;;;;;14.83;61.61;98420.50;4916067;29;19923;-65
2022/09/30 11:10:34;;;;;;;;;;;;;;;14.91;61.30;98416.69;4916356;29;20406;-65
2022/09/30 11:13:06;;;;;;;;;;;;;;;15.00;60.61;98407.31;4916322;29;20375;-65
2022/09/30 11:15:35;;;;;;;;;;;;;;;15.04;60.26;98414.59;4916090;29;20394;-66
2022/09/30 11:18:12;;;;;;;;;;;;;;;15.13;60.09;98415.06;4915473;29;19923;-66
2022/09/30 11:20:44;;;;;;;;;;;;;;;15.15;59.35;98415.66;4916205;29;19930;-65
2022/09/30 11:23:17;;;;;;;;;;;;;;;15.12;59.54;98408.13;4916048;29;19930;-65
2022/09/30 11:26:16;;;;;;;;;;;;;;;15.20;59.69;98407.78;4917287;29;19923;-65
2022/09/30 11:28:52;;;;;;;;;;;;;;;15.32;59.63;98402.44;4907710;29;19927;-65
2022/09/30 11:31:18;;;;;;;;;;;;;;;15.37;59.35;98399.91;4902146;29;19923;-66
2022/09/30 11:33:55;;;;;;;;;;;;;;;15.43;59.37;98398.13;4917709;29;19942;-66
2022/09/30 11:36:28;;;;;;;;;;;;;;;15.53;59.18;98401.03;4917653;29;19923;-65
2022/09/30 11:39:07;;;;;;;;;;;;;;;15.71;59.41;98395.56;4900369;29;19930;-65
2022/09/30 11:41:51;;;;;;;;;;;;;;;15.88;58.53;98403.66;4916009;29;20284;-65
2022/09/30 11:44:24;;;;;;;;;;;;;;;15.98;57.99;98403.03;4916983;29;20336;-65
2022/09/30 11:47:04;;;;;;;;;;;;;;;16.01;57.73;98407.91;4917697;29;19990;-65
2022/09/30 11:49:34;;;;;;;;;;;;;;;15.95;57.68;98400.84;4917213;29;19927;-66
2022/09/30 11:52:09;;;;;;;;;;;;;;;15.93;56.88;98394.97;4917492;29;19923;-66
2022/09/30 11:54:41;;;;;;;;;;;;;;;15.91;56.88;98400.50;4918370;29;19923;-65
2022/09/30 11:57:11;;;;;;;;;;;;;;;15.88;57.15;98409.00;4918169;29;19995;-65
2022/09/30 11:59:41;;;;;;;;;;;;;;;15.96;56.83;98399.78;4918577;29;19923;-65
2022/09/30 12:02:18;;;;;;;;;;;;;;;16.20;57.13;98409.31;4917229;29;19930;-65
2022/09/30 12:04:47;;;;;;;;;;;;;;;16.37;55.87;98400.53;4916578;29;19938;-66
2022/09/30 12:07:16;;;;;;;;;;;;;;;16.38;56.01;98408.34;4917500;29;19927;-65
2022/09/30 12:09:45;;;;;;;;;;;;;;;16.29;56.12;98409.78;4915666;29;19978;-66
2022/09/30 12:12:13;;;;;;;;;;;;;;;16.34;55.69;98421.34;4916589;29;19923;-65
2022/09/30 12:14:48;;;;;;;;;;;;;;;16.24;55.37;98413.13;4915243;29;19973;-65
2022/09/30 12:17:18;;;;;;;;;;;;;;;16.35;55.63;98406.94;4916123;29;19978;-65
2022/09/30 12:19:47;;;;;;;;;;;;;;;16.60;54.96;98413.78;4915271;29;20030;-64
2022/09/30 12:22:23;;;;;;;;;;;;;;;16.82;54.45;98416.59;4915425;29;19981;-65
2022/09/30 12:24:53;;;;;;;;;;;;;;;16.87;53.96;98416.66;4916642;29;20280;-65
2022/09/30 12:27:23;;;;;;;;;;;;;;;17.14;53.59;98410.66;4914949;29;19929;-65
2022/09/30 12:32:58;;;;;;;;;;;;;;;17.64;52.88;98404.41;4915298;29;19931;-66
2022/09/30 12:35:42;;;;;;;;;;;;;;;17.86;52.27;98399.91;4916604;29;19923;-66
2022/09/30 12:38:27;;;;;;;;;;;;;;;18.07;51.71;98411.63;4916019;29;19923;-66
2022/09/30 12:41:12;;;;;;;;;;;;;;;18.16;51.16;98417.34;4916203;29;19931;-66
2022/09/30 12:43:54;;;;;;;;;;;;;;;18.20;51.07;98407.75;4916191;29;19930;-66
2022/09/30 12:46:28;;;;;;;;;;;;;;;18.20;50.72;98411.25;4915752;29;19923;-66
2022/09/30 12:48:58;;;;;;;;;;;;;;;18.18;50.31;98408.03;4915209;29;20010;-66
2022/09/30 12:51:36;;;;;;;;;;;;;;;18.18;50.25;98418.72;4916447;29;19923;-66
2022/09/30 12:54:11;;;;;;;;;;;;;;;18.13;49.98;98415.19;4915014;29;19927;-66
2022/09/30 12:56:41;;;;;;;;;;;;;;;18.10;49.61;98418.38;4915570;29;20360;-65
2022/09/30 12:59:08;;;;;;;;;;;;;;;18.05;49.92;98416.44;4916006;29;19930;-67
2022/09/30 13:01:36;;;;;;;;;;;;;;;18.09;49.85;98416.75;4916169;29;20384;-67
2022/09/30 13:04:03;;;;;;;;;;;;;;;18.13;49.83;98413.31;4917601;29;19923;-65
2022/09/30 13:06:45;;;;;;;;;;;;;;;18.20;49.55;98421.94;4918622;29;19923;-65
2022/09/30 13:09:21;;;;;;;;;;;;;;;18.18;49.04;98410.69;4921141;29;19942;-66
2022/09/30 13:11:53;;;;;;;;;;;;;;;18.09;48.71;98414.09;4919919;29;19971;-66
2022/09/30 13:14:33;;;;;;;;;;;;;;;18.09;48.80;98427.44;4919746;29;20351;-66
2022/09/30 13:17:03;;;;;;;;;;;;;;;18.10;48.62;98416.50;4917897;29;19923;-66